Time;durP1;ratioP1;P1;durP2;ratioP2;P2;SDS_P1;SDS_P2;PMS_P1;PMS_P2;Temp;Humidity;BMP_temperature;BMP_pressure;BME280_temperature;BME280_humidity;BME280_pressure;Samples;Min_cycle;Max_cycle;Signal;HPM_P1;HPM_P2
2024/01/02 00:00:52;;;;;;;3.13;1.38;;;11.60;68.00;13.30;99776.00;;;;5047103;28;20278;-76
2024/01/02 00:03:19;;;;;;;2.75;0.82;;;11.70;68.10;13.30;99764.00;;;;5047343;28;20586;-76
2024/01/02 00:05:46;;;;;;;4.78;1.45;;;11.70;68.10;13.30;99757.00;;;;5031973;28;20208;-75
2024/01/02 00:08:13;;;;;;;2.63;1.10;;;11.70;68.10;13.30;99753.00;;;;5031535;28;20206;-75
2024/01/02 00:10:41;;;;;;;2.95;1.20;;;11.70;68.10;13.30;99745.00;;;;5032395;28;20573;-75
2024/01/02 00:13:08;;;;;;;8.32;1.20;;;11.60;68.10;13.30;99733.00;;;;5031486;28;20692;-75
2024/01/02 00:15:35;;;;;;;7.45;1.00;;;11.70;68.20;13.30;99731.00;;;;5031491;28;20212;-74
2024/01/02 00:18:02;;;;;;;4.40;1.17;;;11.60;68.20;13.30;99719.00;;;;5032472;28;20200;-74
2024/01/02 00:20:30;;;;;;;9.93;4.57;;;11.70;68.20;13.30;99711.00;;;;5031572;28;20207;-74
2024/01/02 00:22:57;;;;;;;10.80;3.75;;;11.60;68.30;13.30;99702.00;;;;5031882;28;20224;-75
2024/01/02 00:25:24;;;;;;;12.05;2.80;;;11.60;68.20;13.30;99692.00;;;;5031838;28;20196;-74
2024/01/02 00:27:52;;;;;;;3.55;1.58;;;11.70;68.30;13.30;99685.00;;;;5030890;28;20194;-75
2024/01/02 00:30:19;;;;;;;3.85;1.42;;;11.60;68.20;13.30;99681.00;;;;5031817;28;20295;-75
2024/01/02 00:32:46;;;;;;;6.35;1.23;;;11.60;68.30;13.20;99673.00;;;;5030985;28;20215;-75
2024/01/02 00:35:13;;;;;;;4.35;0.88;;;11.60;68.30;13.20;99650.00;;;;5030979;28;20224;-74
2024/01/02 00:37:40;;;;;;;3.92;0.75;;;11.60;68.40;13.20;99638.00;;;;5031008;28;20569;-74
2024/01/02 00:40:09;;;;;;;5.45;1.05;;;11.60;68.50;13.30;99633.00;;;;5030862;28;20188;-74
2024/01/02 00:42:36;;;;;;;2.65;1.05;;;11.60;68.60;13.30;99626.00;;;;5029789;28;20216;-74
2024/01/02 00:45:06;;;;;;;3.20;1.00;;;11.60;68.60;13.30;99613.00;;;;5031002;28;20279;-74
2024/01/02 00:47:33;;;;;;;2.22;0.90;;;11.60;68.70;13.30;99608.00;;;;5031560;28;20200;-74
2024/01/02 00:50:00;;;;;;;4.60;1.15;;;11.70;68.80;13.30;99589.00;;;;5031087;28;20222;-74
2024/01/02 00:52:27;;;;;;;3.22;0.95;;;11.60;68.70;13.30;99592.00;;;;5030842;28;20203;-74
2024/01/02 00:54:54;;;;;;;6.53;1.45;;;11.60;68.60;13.30;99578.00;;;;5030670;28;20198;-74
2024/01/02 00:57:21;;;;;;;4.20;0.70;;;11.60;68.60;13.30;99578.00;;;;5031190;28;20193;-74
2024/01/02 00:59:48;;;;;;;4.13;0.80;;;11.70;68.70;13.30;99561.00;;;;5030891;28;20211;-74
2024/01/02 01:02:16;;;;;;;3.88;1.10;;;11.60;68.70;13.20;99545.00;;;;5031257;28;20195;-74
2024/01/02 01:04:44;;;;;;;4.10;1.58;;;11.70;68.80;13.30;99537.00;;;;5030894;28;20224;-74
2024/01/02 01:07:11;;;;;;;3.28;1.30;;;11.60;68.90;13.30;99524.00;;;;5031392;28;20205;-73
2024/01/02 01:09:39;;;;;;;4.72;1.48;;;11.70;68.90;13.30;99509.00;;;;5032289;28;20595;-74
2024/01/02 01:12:08;;;;;;;3.65;0.95;;;11.70;68.90;13.20;99502.00;;;;5034626;28;20210;-74
2024/01/02 01:14:35;;;;;;;1.88;0.57;;;11.60;68.90;13.30;99490.00;;;;5034344;28;20777;-73
2024/01/02 01:17:04;;;;;;;7.10;1.13;;;11.60;68.90;13.30;99471.00;;;;5034512;28;20291;-73
2024/01/02 01:19:32;;;;;;;3.90;0.95;;;11.70;69.00;13.30;99464.00;;;;5035076;28;20200;-73
2024/01/02 01:21:59;;;;;;;3.25;0.80;;;11.70;69.10;13.20;99450.00;;;;5034034;28;20199;-74
2024/01/02 01:24:26;;;;;;;1.30;0.57;;;11.70;68.90;13.30;99442.00;;;;5034203;28;21038;-74
2024/01/02 01:26:53;;;;;;;1.75;0.50;;;11.70;68.90;13.30;99424.00;;;;5034623;28;20197;-74
2024/01/02 01:29:21;;;;;;;1.80;0.60;;;11.70;69.10;13.30;99418.00;;;;5033950;28;20303;-74
2024/01/02 01:31:48;;;;;;;2.22;0.65;;;11.70;69.10;13.30;99401.00;;;;5034357;28;20204;-73
2024/01/02 01:34:16;;;;;;;2.22;0.75;;;11.70;69.10;13.30;99396.00;;;;5034174;28;20196;-74
2024/01/02 01:36:44;;;;;;;2.38;0.55;;;11.70;69.10;13.30;99382.00;;;;5033972;28;21174;-74
2024/01/02 01:39:11;;;;;;;2.60;0.70;;;11.70;69.10;13.30;99381.00;;;;5034432;28;20286;-74
2024/01/02 01:41:38;;;;;;;2.40;0.40;;;11.70;69.10;13.30;99364.00;;;;5033831;28;20684;-74
2024/01/02 01:44:05;;;;;;;0.82;0.47;;;11.70;69.10;13.30;99356.00;;;;5034115;28;20228;-74
2024/01/02 01:46:37;;;;;;;0.85;0.45;;;11.70;69.10;13.30;99341.00;;;;5034185;28;20289;-74
2024/01/02 01:49:07;;;;;;;1.38;0.60;;;11.70;69.20;13.30;99344.00;;;;5034062;28;20192;-73
2024/01/02 01:51:36;;;;;;;1.48;0.70;;;11.70;69.20;13.30;99326.00;;;;5034080;28;20274;-73
2024/01/02 01:54:05;;;;;;;2.03;0.57;;;11.70;69.30;13.30;99315.00;;;;5032616;28;20196;-74
2024/01/02 01:56:34;;;;;;;2.03;0.63;;;11.70;69.30;13.30;99313.00;;;;5033786;28;20196;-74
2024/01/02 01:59:04;;;;;;;2.53;0.40;;;11.70;69.40;13.30;99311.00;;;;5033423;28;20565;-73
2024/01/02 02:01:32;;;;;;;2.60;0.70;;;11.70;69.30;13.30;99296.00;;;;5033545;28;20632;-73
2024/01/02 02:04:01;;;;;;;1.85;0.40;;;11.80;69.50;13.30;99299.00;;;;5033476;28;20220;-74
2024/01/02 02:06:28;;;;;;;1.35;0.30;;;11.70;69.40;13.40;99284.00;;;;5033357;28;20907;-73
2024/01/02 02:08:55;;;;;;;1.35;0.30;;;11.70;69.40;13.40;99277.00;;;;5034214;28;20208;-73
2024/01/02 02:11:25;;;;;;;1.80;0.38;;;11.70;69.40;13.40;99266.00;;;;5032991;28;20254;-73
2024/01/02 02:13:53;;;;;;;0.80;0.20;;;11.80;69.40;13.40;99246.00;;;;5033411;28;20662;-73
2024/01/02 02:16:20;;;;;;;1.75;0.40;;;11.80;69.50;13.40;99247.00;;;;5032735;28;20209;-73
2024/01/02 02:18:47;;;;;;;1.17;0.35;;;11.80;69.40;13.40;99236.00;;;;5032904;28;20196;-73
2024/01/02 02:21:14;;;;;;;0.63;0.20;;;11.80;69.40;13.40;99236.00;;;;5032126;28;20662;-74
2024/01/02 02:23:42;;;;;;;0.88;0.45;;;11.80;69.50;13.40;99236.00;;;;5033126;28;20220;-76
2024/01/02 02:26:09;;;;;;;1.73;0.50;;;11.80;69.50;13.40;99227.00;;;;5033056;28;20211;-73
2024/01/02 02:28:37;;;;;;;3.15;0.60;;;11.80;69.50;13.40;99224.00;;;;5033393;28;20227;-74
2024/01/02 02:31:04;;;;;;;1.65;0.43;;;11.80;69.60;13.40;99217.00;;;;5032991;28;20207;-73
2024/01/02 02:33:31;;;;;;;3.45;0.82;;;11.80;69.50;13.40;99211.00;;;;5033188;28;20204;-74
2024/01/02 02:35:59;;;;;;;1.45;0.40;;;11.80;69.50;13.40;99185.00;;;;5032626;28;20220;-74
2024/01/02 02:38:26;;;;;;;0.77;0.22;;;11.80;69.50;13.40;99186.00;;;;5033305;28;20200;-73
2024/01/02 02:40:54;;;;;;;0.20;0.10;;;11.80;69.50;13.40;99184.00;;;;5032558;28;20193;-73
2024/01/02 02:43:21;;;;;;;0.70;0.30;;;11.90;69.60;13.40;99175.00;;;;5033027;28;20216;-74
2024/01/02 02:45:48;;;;;;;0.70;0.30;;;11.90;70.20;13.40;99145.00;;;;5031923;28;20570;-74
2024/01/02 02:48:15;;;;;;;1.05;0.20;;;11.90;69.50;13.40;99129.00;;;;5033433;28;20204;-74
2024/01/02 02:50:42;;;;;;;2.60;0.40;;;11.90;69.50;13.40;99129.00;;;;5032563;28;20189;-74
2024/01/02 02:53:09;;;;;;;0.95;0.30;;;11.90;69.60;13.50;99132.00;;;;5032650;28;20196;-74
2024/01/02 02:55:36;;;;;;;0.40;0.10;;;11.90;69.70;13.50;99126.00;;;;5033014;28;20554;-73
2024/01/02 02:58:05;;;;;;;0.77;0.17;;;11.90;69.70;13.50;99122.00;;;;5032877;28;20208;-74
2024/01/02 03:00:34;;;;;;;1.25;0.73;;;11.90;69.70;13.50;99087.00;;;;5016085;28;20195;-73
2024/01/02 03:03:01;;;;;;;0.60;0.30;;;11.90;69.90;13.50;99051.00;;;;5032433;28;20614;-73
2024/01/02 03:05:28;;;;;;;1.38;0.40;;;11.90;69.80;13.50;99050.00;;;;5032626;28;20658;-74
2024/01/02 03:07:57;;;;;;;2.38;0.20;;;11.90;69.80;13.50;99052.00;;;;5032957;28;20197;-74
2024/01/02 03:10:24;;;;;;;0.55;0.20;;;12.00;69.80;13.50;99064.00;;;;5032148;28;20205;-73
2024/01/02 03:12:51;;;;;;;1.20;0.10;;;12.00;69.80;13.50;99061.00;;;;5032536;28;20677;-73
2024/01/02 03:15:20;;;;;;;0.30;0.10;;;11.90;69.80;13.50;99054.00;;;;5032437;28;20220;-74
2024/01/02 03:17:47;;;;;;;0.35;0.20;;;12.00;69.90;13.50;99034.00;;;;5032144;28;20275;-73
2024/01/02 03:20:14;;;;;;;0.20;0.10;;;12.00;70.00;13.60;99004.00;;;;5032345;28;20202;-73
2024/01/02 03:22:41;;;;;;;1.23;0.10;;;12.00;69.80;13.50;99002.00;;;;5032480;28;20211;-73
2024/01/02 03:25:09;;;;;;;0.82;0.40;;;12.00;69.80;13.50;99001.00;;;;5031878;28;20234;-73
2024/01/02 03:27:36;;;;;;;0.10;0.10;;;12.00;69.90;13.50;98998.00;;;;5031908;28;20203;-73
2024/01/02 03:30:04;;;;;;;0.40;0.10;;;12.00;69.90;13.60;98972.00;;;;5032435;28;20532;-75
2024/01/02 03:32:32;;;;;;;0.10;0.10;;;12.00;70.10;13.60;98962.00;;;;5031447;28;20200;-73
2024/01/02 03:34:59;;;;;;;0.82;0.10;;;12.00;70.00;13.60;98972.00;;;;5031597;28;20220;-73
2024/01/02 03:37:26;;;;;;;0.20;0.10;;;12.00;70.00;13.60;98959.00;;;;5032208;28;20586;-74
2024/01/02 03:39:54;;;;;;;1.25;0.20;;;12.00;70.00;13.60;98944.00;;;;5032097;28;20200;-73
2024/01/02 03:42:21;;;;;;;0.47;0.10;;;12.00;70.00;13.60;98942.00;;;;5031533;28;20199;-73
2024/01/02 03:44:48;;;;;;;1.15;0.10;;;12.00;70.10;13.60;98929.00;;;;5031968;28;20593;-72
2024/01/02 03:47:15;;;;;;;0.28;0.10;;;12.00;70.80;13.60;98936.00;;;;5015368;28;20193;-74
2024/01/02 03:49:43;;;;;;;0.22;0.10;;;12.00;70.10;13.60;98947.00;;;;5032195;28;20204;-73
2024/01/02 03:52:10;;;;;;;0.20;0.10;;;12.10;70.90;13.70;98972.00;;;;5031846;28;20228;-73
2024/01/02 03:54:37;;;;;;;0.20;0.20;;;12.10;70.20;13.70;98968.00;;;;5031402;28;20210;-74
2024/01/02 03:57:05;;;;;;;1.30;0.10;;;12.10;70.30;13.70;98948.00;;;;5031820;28;20200;-73
2024/01/02 03:59:32;;;;;;;0.20;0.20;;;12.10;70.40;13.70;98920.00;;;;5031745;28;20211;-74
2024/01/02 04:01:59;;;;;;;0.10;0.10;;;12.10;70.50;13.70;98907.00;;;;5031831;28;20227;-74
2024/01/02 04:04:26;;;;;;;0.20;0.10;;;12.10;70.50;13.70;98893.00;;;;5031741;28;20224;-74
2024/01/02 04:06:54;;;;;;;0.20;0.13;;;12.10;71.20;13.70;98911.00;;;;5031307;28;20199;-74
2024/01/02 04:09:21;;;;;;;0.00;0.00;;;12.20;70.60;13.80;98926.00;;;;5031680;28;20192;-73
2024/01/02 04:11:50;;;;;;;0.10;0.00;;;12.10;70.60;13.80;98923.00;;;;5031267;28;20200;-74
2024/01/02 04:14:17;;;;;;;0.88;0.20;;;12.20;70.70;13.80;98914.00;;;;5031600;28;20204;-73
2024/01/02 04:16:44;;;;;;;0.10;0.00;;;12.20;70.60;13.80;98906.00;;;;5031977;28;20197;-74
2024/01/02 04:19:11;;;;;;;0.15;0.00;;;12.20;70.70;13.90;98894.00;;;;5030747;28;20672;-73
2024/01/02 04:21:38;;;;;;;0.40;0.00;;;12.30;70.70;13.90;98901.00;;;;5031278;28;20311;-74
2024/01/02 04:24:06;;;;;;;0.08;0.03;;;12.30;70.70;13.90;98890.00;;;;5031324;28;20224;-73
2024/01/02 04:26:33;;;;;;;1.15;0.17;;;12.30;71.50;14.00;98863.00;;;;5031078;28;20196;-73
2024/01/02 04:29:01;;;;;;;0.20;0.10;;;12.30;70.80;14.00;98869.00;;;;5030654;28;20215;-73
2024/01/02 04:31:28;;;;;;;0.00;0.00;;;12.40;70.90;14.00;98871.00;;;;5031176;28;20292;-74
2024/01/02 04:33:55;;;;;;;0.40;0.05;;;12.40;70.90;14.00;98863.00;;;;5031280;28;20207;-73
2024/01/02 04:36:25;;;;;;;0.32;0.10;;;12.40;70.90;14.00;98875.00;;;;5030841;28;20322;-73
2024/01/02 04:38:52;;;;;;;0.10;0.00;;;12.40;70.90;14.10;98869.00;;;;5031261;28;20279;-73
2024/01/02 04:41:21;;;;;;;0.08;0.08;;;12.40;70.90;14.10;98869.00;;;;5031269;28;20208;-73
2024/01/02 04:43:48;;;;;;;0.00;0.00;;;12.40;70.90;14.10;98858.00;;;;5030756;28;20203;-74
2024/01/02 04:46:15;;;;;;;0.20;0.03;;;12.50;70.90;14.10;98852.00;;;;5035331;28;20202;-73
2024/01/02 04:48:42;;;;;;;0.10;0.10;;;12.50;71.10;14.10;98860.00;;;;5034544;28;20200;-72
2024/01/02 04:51:09;;;;;;;0.30;0.00;;;12.50;71.00;14.20;98861.00;;;;5034666;28;20197;-73
2024/01/02 04:53:36;;;;;;;0.03;0.00;;;12.60;71.00;14.20;98860.00;;;;5035463;28;20192;-74
2024/01/02 04:56:03;;;;;;;0.10;0.10;;;12.60;71.10;14.20;98856.00;;;;5035037;28;20307;-73
2024/01/02 04:58:32;;;;;;;0.17;0.10;;;12.60;71.20;14.30;98850.00;;;;5018841;28;20192;-73
2024/01/02 05:00:59;;;;;;;0.20;0.13;;;12.70;72.00;14.30;98856.00;;;;5034829;28;20192;-73
2024/01/02 05:03:27;;;;;;;0.17;0.08;;;12.70;71.30;14.30;98849.00;;;;5034704;28;20208;-74
2024/01/02 05:05:54;;;;;;;0.10;0.10;;;12.70;71.30;14.40;98859.00;;;;5034627;28;20216;-73
2024/01/02 05:08:21;;;;;;;0.13;0.13;;;12.80;71.40;14.40;98849.00;;;;5035136;28;20199;-73
2024/01/02 05:10:48;;;;;;;0.15;0.05;;;12.80;71.50;14.40;98850.00;;;;5034873;28;20192;-73
2024/01/02 05:13:15;;;;;;;0.20;0.10;;;12.80;71.50;14.40;98840.00;;;;5034555;28;20684;-73
2024/01/02 05:15:43;;;;;;;0.20;0.10;;;12.90;71.50;14.50;98849.00;;;;5034265;28;20219;-73
2024/01/02 05:18:11;;;;;;;0.20;0.15;;;12.90;71.60;14.50;98844.00;;;;5034281;28;20650;-73
2024/01/02 05:20:38;;;;;;;0.52;0.20;;;13.00;72.50;14.60;98843.00;;;;5034215;28;20669;-73
2024/01/02 05:23:05;;;;;;;0.10;0.08;;;13.00;71.80;14.60;98840.00;;;;5034809;28;21170;-73
2024/01/02 05:25:33;;;;;;;0.13;0.10;;;13.00;71.90;14.60;98834.00;;;;5034372;28;20227;-74
2024/01/02 05:28:00;;;;;;;0.20;0.20;;;13.00;71.90;14.70;98832.00;;;;5034449;28;20196;-75
2024/01/02 05:30:27;;;;;;;0.10;0.08;;;13.10;72.00;14.70;98825.00;;;;5033924;28;20185;-73
2024/01/02 05:32:55;;;;;;;0.20;0.15;;;13.10;72.00;14.70;98834.00;;;;5033971;28;20199;-73
2024/01/02 05:35:22;;;;;;;0.20;0.20;;;13.20;72.10;14.80;98835.00;;;;5034025;28;20588;-73
2024/01/02 05:37:49;;;;;;;0.30;0.20;;;13.20;72.10;14.80;98853.00;;;;5035000;28;20204;-74
2024/01/02 05:40:17;;;;;;;0.30;0.30;;;13.30;72.10;14.90;98848.00;;;;5034026;28;20682;-74
2024/01/02 05:42:44;;;;;;;0.30;0.25;;;13.30;72.20;14.90;98844.00;;;;5034081;28;20287;-72
2024/01/02 05:45:11;;;;;;;0.30;0.30;;;13.40;72.40;15.00;98844.00;;;;5034069;28;20231;-73
2024/01/02 05:47:38;;;;;;;0.50;0.45;;;13.40;72.50;15.00;98860.00;;;;5033795;28;20303;-73
2024/01/02 05:50:08;;;;;;;0.40;0.38;;;13.50;72.60;15.10;98855.00;;;;5033882;28;20685;-73
2024/01/02 05:52:35;;;;;;;0.93;0.52;;;13.50;72.70;15.10;98856.00;;;;5014311;28;20567;-73
2024/01/02 05:55:02;;;;;;;0.40;0.35;;;13.60;72.90;15.20;98860.00;;;;5033207;28;20196;-73
2024/01/02 05:57:29;;;;;;;0.70;0.38;;;13.60;73.00;15.20;98868.00;;;;5032825;28;20203;-73
2024/01/02 05:59:56;;;;;;;0.60;0.40;;;13.70;72.90;15.30;98852.00;;;;5033101;28;20215;-73
2024/01/02 06:02:23;;;;;;;0.60;0.50;;;13.70;73.00;15.30;98860.00;;;;5033959;28;20195;-72
2024/01/02 06:04:50;;;;;;;0.43;0.40;;;13.80;73.10;15.40;98856.00;;;;5033796;28;20617;-73
2024/01/02 06:07:19;;;;;;;1.55;0.52;;;13.90;73.10;15.40;98863.00;;;;5033524;28;20279;-73
2024/01/02 06:09:46;;;;;;;0.55;0.40;;;13.90;73.10;15.50;98869.00;;;;5033604;28;20277;-74
2024/01/02 06:12:13;;;;;;;0.80;0.47;;;14.00;73.80;15.50;98881.00;;;;5020380;28;20279;-73
2024/01/02 06:14:40;;;;;;;1.35;0.70;;;14.00;73.10;15.60;98879.00;;;;5032963;28;20209;-72
2024/01/02 06:17:07;;;;;;;2.75;0.93;;;14.10;73.30;15.60;98878.00;;;;5033415;28;20193;-73
2024/01/02 06:19:34;;;;;;;1.52;0.90;;;14.10;73.30;15.70;98882.00;;;;5033361;28;20573;-73
2024/01/02 06:22:01;;;;;;;1.60;1.00;;;14.20;73.30;15.80;98885.00;;;;5033608;28;20197;-72
2024/01/02 06:24:30;;;;;;;2.95;1.00;;;14.20;73.30;15.80;98878.00;;;;5033613;28;20224;-73
2024/01/02 06:26:57;;;;;;;2.47;1.25;;;14.30;73.50;15.90;98888.00;;;;5033008;28;20219;-73
2024/01/02 06:29:25;;;;;;;3.63;1.20;;;14.40;73.40;15.90;98900.00;;;;5033064;28;20294;-73
2024/01/02 06:31:52;;;;;;;2.75;1.55;;;14.40;73.40;15.90;98904.00;;;;5032889;28;20629;-73
2024/01/02 06:34:19;;;;;;;4.88;1.52;;;14.40;73.40;16.00;98911.00;;;;5033211;28;20273;-73
2024/01/02 06:36:46;;;;;;;5.10;1.70;;;14.50;73.30;16.00;98916.00;;;;5032583;28;20197;-73
2024/01/02 06:39:15;;;;;;;2.38;0.88;;;14.60;73.50;16.10;98925.00;;;;5031902;28;20204;-73
2024/01/02 06:41:44;;;;;;;9.70;1.70;;;14.60;73.40;16.10;98919.00;;;;5032526;28;20688;-73
2024/01/02 06:44:12;;;;;;;3.38;1.40;;;14.70;73.30;16.20;98926.00;;;;5033434;28;20216;-73
2024/01/02 06:46:39;;;;;;;7.82;1.50;;;14.70;73.30;16.20;98933.00;;;;5032598;28;20214;-73
2024/01/02 06:49:06;;;;;;;4.72;1.45;;;14.80;73.20;16.30;98921.00;;;;5033508;28;20204;-73
2024/01/02 06:51:33;;;;;;;3.58;1.13;;;14.80;73.20;16.30;98923.00;;;;5032864;28;20192;-73
2024/01/02 06:54:01;;;;;;;5.38;1.10;;;14.80;73.10;16.40;98938.00;;;;5032941;28;20198;-73
2024/01/02 06:56:28;;;;;;;4.20;0.90;;;14.90;73.10;16.40;98933.00;;;;5024572;28;20693;-73
2024/01/02 06:58:57;;;;;;;4.65;1.10;;;14.90;73.00;16.40;98938.00;;;;5032681;28;20748;-73
2024/01/02 07:01:24;;;;;;;5.30;1.55;;;14.90;73.00;16.40;98940.00;;;;5032923;28;20219;-73
2024/01/02 07:03:51;;;;;;;6.45;1.25;;;15.00;72.90;16.50;98941.00;;;;5032207;28;20732;-73
2024/01/02 07:06:18;;;;;;;8.90;1.80;;;15.00;72.90;16.50;98945.00;;;;5032060;28;20216;-73
2024/01/02 07:08:45;;;;;;;8.60;1.88;;;15.00;72.80;16.50;98952.00;;;;5032444;28;20232;-72
2024/01/02 07:11:12;;;;;;;8.75;2.08;;;15.00;72.70;16.50;98955.00;;;;5032216;28;20287;-73
2024/01/02 07:13:39;;;;;;;8.95;1.40;;;15.10;72.70;16.50;98957.00;;;;5032189;28;20212;-73
2024/01/02 07:16:08;;;;;;;8.40;2.03;;;15.10;72.50;16.50;98962.00;;;;5032355;28;20220;-73
2024/01/02 07:18:36;;;;;;;7.57;1.75;;;15.10;72.50;16.50;98968.00;;;;5031556;28;20291;-73
2024/01/02 07:21:04;;;;;;;10.65;2.40;;;15.10;72.40;16.50;98958.00;;;;5032250;28;20564;-73
2024/01/02 07:23:31;;;;;;;8.10;2.00;;;15.10;72.30;16.50;98978.00;;;;5031837;28;20200;-73
2024/01/02 07:25:58;;;;;;;7.93;1.60;;;15.10;72.30;16.50;98983.00;;;;5031961;28;20224;-73
2024/01/02 07:28:25;;;;;;;8.10;1.50;;;15.10;72.20;16.50;98983.00;;;;5032426;28;20192;-72
2024/01/02 07:30:52;;;;;;;7.43;1.65;;;15.10;72.80;16.50;98981.00;;;;5032019;28;20196;-73
2024/01/02 07:33:21;;;;;;;7.97;1.50;;;15.10;72.10;16.50;98989.00;;;;5015908;28;20196;-74
2024/01/02 07:35:48;;;;;;;8.35;1.42;;;15.10;72.10;16.50;98998.00;;;;5031494;28;20220;-73
2024/01/02 07:38:15;;;;;;;5.30;1.38;;;15.10;72.00;16.50;99005.00;;;;5031758;28;20204;-72
2024/01/02 07:40:42;;;;;;;12.20;2.03;;;15.10;72.00;16.50;99015.00;;;;5031989;28;20198;-73
2024/01/02 07:43:09;;;;;;;7.43;1.40;;;15.10;72.00;16.50;99021.00;;;;5031657;28;20287;-73
2024/01/02 07:45:36;;;;;;;7.18;2.17;;;15.10;71.90;16.40;99038.00;;;;5032049;28;20211;-74
2024/01/02 07:48:03;;;;;;;9.40;2.25;;;15.10;71.90;16.50;99035.00;;;;5031819;28;20203;-73
2024/01/02 07:50:31;;;;;;;8.18;2.13;;;15.00;72.00;16.40;99037.00;;;;5031148;28;20196;-74
2024/01/02 07:52:58;;;;;;;9.90;3.20;;;15.00;72.00;16.50;99036.00;;;;5031578;28;20196;-74
2024/01/02 07:55:25;;;;;;;6.65;1.48;;;15.00;72.00;16.50;99034.00;;;;5031442;28;20709;-73
2024/01/02 07:57:52;;;;;;;10.00;2.05;;;15.00;72.00;16.50;99047.00;;;;5031499;28;20196;-73
2024/01/02 08:00:20;;;;;;;8.48;2.38;;;15.10;72.10;16.50;99039.00;;;;5031622;28;20693;-74
2024/01/02 08:02:47;;;;;;;7.70;1.85;;;15.10;72.10;16.50;99031.00;;;;5031263;28;20196;-74
2024/01/02 08:05:15;;;;;;;6.80;2.05;;;15.10;72.10;16.50;99040.00;;;;5031388;28;20224;-74
2024/01/02 08:07:43;;;;;;;13.27;2.20;;;15.10;72.10;16.50;99035.00;;;;5028656;28;20676;-73
2024/01/02 08:10:10;;;;;;;9.98;2.13;;;15.10;72.10;16.60;99043.00;;;;5031041;28;20246;-75
2024/01/02 08:12:37;;;;;;;8.93;1.95;;;15.10;72.10;16.60;99041.00;;;;5031827;28;20765;-74
2024/01/02 08:15:05;;;;;;;12.05;2.10;;;15.20;72.10;16.60;99036.00;;;;5031289;28;20232;-74
2024/01/02 08:17:32;;;;;;;10.00;1.88;;;15.10;72.00;16.60;99038.00;;;;5031150;28;20283;-74
2024/01/02 08:19:59;;;;;;;9.38;3.10;;;15.20;72.00;16.60;99034.00;;;;5033390;28;20203;-74
2024/01/02 08:22:27;;;;;;;9.40;1.80;;;15.20;72.00;16.60;99031.00;;;;5034810;28;20206;-74
2024/01/02 08:24:55;;;;;;;8.10;2.78;;;15.20;72.00;16.60;99032.00;;;;5035685;28;20197;-74
2024/01/02 08:27:25;;;;;;;12.07;2.33;;;15.20;71.90;16.60;99021.00;;;;5035130;28;20199;-74
2024/01/02 08:29:52;;;;;;;12.13;2.17;;;15.20;71.80;16.70;99026.00;;;;5035339;28;20208;-74
2024/01/02 08:32:20;;;;;;;9.00;2.33;;;15.20;71.80;16.60;99024.00;;;;5035236;28;20254;-74
2024/01/02 08:34:47;;;;;;;6.60;2.03;;;15.20;71.80;16.70;99034.00;;;;5034736;28;20228;-74
2024/01/02 08:37:14;;;;;;;10.52;2.05;;;15.20;71.70;16.70;99035.00;;;;5035434;28;20207;-73
2024/01/02 08:39:41;;;;;;;10.32;2.50;;;15.20;71.70;16.70;99038.00;;;;5035412;28;20218;-74
2024/01/02 08:42:10;;;;;;;12.32;2.35;;;15.20;71.60;16.70;99026.00;;;;5034494;28;20196;-74
2024/01/02 08:44:37;;;;;;;11.90;2.13;;;15.20;71.60;16.60;99030.00;;;;5035221;28;20196;-74
2024/01/02 08:47:05;;;;;;;11.27;2.40;;;15.20;71.60;16.70;99030.00;;;;5034298;28;20230;-74
2024/01/02 08:49:32;;;;;;;12.25;2.45;;;15.20;71.50;16.70;99028.00;;;;5034946;28;20203;-74
2024/01/02 08:51:59;;;;;;;11.90;2.78;;;15.20;71.50;16.70;99018.00;;;;5035004;28;20290;-74
2024/01/02 08:54:26;;;;;;;10.35;2.15;;;15.20;71.50;16.70;99009.00;;;;5034629;28;20193;-74
2024/01/02 08:56:53;;;;;;;10.38;2.15;;;15.20;71.40;16.70;98998.00;;;;5035236;28;20646;-74
2024/01/02 08:59:22;;;;;;;8.75;2.17;;;15.20;71.40;16.70;99010.00;;;;5034681;28;20283;-74
2024/01/02 09:01:51;;;;;;;9.02;2.50;;;15.20;71.40;16.70;99009.00;;;;5034632;28;20193;-75
2024/01/02 09:04:19;;;;;;;11.27;2.78;;;15.20;71.40;16.70;99000.00;;;;5034932;28;20211;-74
2024/01/02 09:06:46;;;;;;;15.13;2.38;;;15.20;71.40;16.80;99007.00;;;;5033489;28;20307;-74
2024/01/02 09:09:13;;;;;;;13.57;2.42;;;15.20;71.40;16.80;99003.00;;;;5034702;28;20576;-74
2024/01/02 09:11:40;;;;;;;9.82;2.85;;;15.20;71.40;16.80;99005.00;;;;5034661;28;20192;-74
2024/01/02 09:14:07;;;;;;;13.77;2.58;;;15.20;71.40;16.80;99004.00;;;;5034475;28;20214;-74
2024/01/02 09:16:38;;;;;;;10.57;1.90;;;15.30;71.50;16.80;99006.00;;;;5034310;28;20192;-74
2024/01/02 09:19:05;;;;;;;10.80;2.38;;;15.30;71.50;16.80;99007.00;;;;5034297;28;20550;-74
2024/01/02 09:21:32;;;;;;;11.00;2.53;;;15.30;71.50;16.90;99004.00;;;;5034162;28;20192;-74
2024/01/02 09:23:59;;;;;;;11.98;2.05;;;15.30;71.60;16.90;99007.00;;;;5034850;28;20196;-74
2024/01/02 09:26:27;;;;;;;9.57;2.65;;;15.30;71.60;16.90;99003.00;;;;5033709;28;20311;-74
2024/01/02 09:28:54;;;;;;;15.18;2.58;;;15.30;71.60;16.90;99009.00;;;;5034445;28;20199;-74
2024/01/02 09:31:25;;;;;;;13.63;2.97;;;15.40;71.60;16.90;99011.00;;;;5032670;28;20201;-75
2024/01/02 09:33:54;;;;;;;11.07;1.90;;;15.40;71.60;17.00;99014.00;;;;5034449;28;20208;-74
2024/01/02 09:36:21;;;;;;;10.63;1.73;;;15.40;71.60;17.00;99002.00;;;;5033912;28;20239;-75
2024/01/02 09:38:48;;;;;;;13.05;2.80;;;15.40;71.60;17.00;99005.00;;;;5034101;28;20721;-74
2024/01/02 09:42:01;;;;;;;15.85;3.17;;;15.40;71.60;16.90;99001.00;;;;5033716;28;20203;-74
2024/01/02 09:44:51;;;;;;;8.55;1.52;;;15.40;71.70;17.00;99000.00;;;;5034234;28;20188;-74
2024/01/02 09:47:43;;;;;;;9.60;2.42;;;15.50;71.80;17.00;99005.00;;;;5033113;28;20716;-74
2024/01/02 09:50:18;;;;;;;9.25;2.33;;;15.50;71.70;17.10;99004.00;;;;5033922;28;20224;-74
2024/01/02 09:53:18;;;;;;;9.38;2.30;;;15.60;71.70;17.10;99003.00;;;;5033759;28;20187;-74
2024/01/02 09:55:54;;;;;;;15.07;3.15;;;15.60;71.80;17.20;99010.00;;;;5033667;28;20202;-74
2024/01/02 09:58:35;;;;;;;9.25;2.95;;;15.60;71.70;17.20;99008.00;;;;5033624;28;20196;-74
2024/01/02 10:01:19;;;;;;;12.45;2.53;;;15.70;71.80;17.20;99010.00;;;;5034081;28;20193;-74
2024/01/02 10:04:30;;;;;;;9.95;2.58;;;15.70;71.80;17.20;99013.00;;;;5033394;28;20196;-74
2024/01/02 10:07:33;;;;;;;7.05;1.70;;;15.70;71.80;17.20;99006.00;;;;5033086;28;20705;-74
2024/01/02 10:10:11;;;;;;;5.07;1.92;;;15.80;71.80;17.30;98997.00;;;;5033301;28;20199;-74
2024/01/02 10:13:04;;;;;;;9.90;2.20;;;15.90;71.70;17.30;99002.00;;;;5033641;28;20204;-74
2024/01/02 10:15:42;;;;;;;7.50;1.70;;;15.90;71.70;17.40;98994.00;;;;5033339;28;20229;-74
2024/01/02 10:18:21;;;;;;;9.13;2.08;;;15.90;71.60;17.40;98997.00;;;;5032932;28;20584;-74
2024/01/02 10:21:04;;;;;;;14.23;2.55;;;15.90;71.60;17.40;98990.00;;;;5033280;28;20573;-74
2024/01/02 10:23:47;;;;;;;8.80;2.00;;;15.90;71.50;17.40;98981.00;;;;5033098;28;20562;-74
2024/01/02 10:26:15;;;;;;;15.77;2.17;;;16.00;71.60;17.50;98974.00;;;;5033701;28;20220;-74
2024/01/02 10:28:44;;;;;;;6.20;1.48;;;16.00;71.50;17.50;98982.00;;;;5033061;28;20196;-74
2024/01/02 10:31:25;;;;;;;4.50;1.40;;;16.00;71.50;17.50;98972.00;;;;5033360;28;20570;-74
2024/01/02 10:34:07;;;;;;;5.90;1.58;;;16.00;71.50;17.50;98978.00;;;;5033246;28;20232;-74
2024/01/02 10:36:49;;;;;;;5.70;1.52;;;16.00;71.50;17.50;98982.00;;;;5033360;28;20259;-74
2024/01/02 10:39:34;;;;;;;8.20;2.28;;;16.10;71.40;17.50;98969.00;;;;5033335;28;20283;-74
2024/01/02 10:42:31;;;;;;;6.10;1.95;;;16.10;71.50;17.50;98961.00;;;;5032360;28;20192;-74
2024/01/02 10:45:15;;;;;;;4.07;1.55;;;16.10;71.40;17.60;98957.00;;;;5032752;28;20188;-74
2024/01/02 10:48:01;;;;;;;2.78;1.30;;;16.10;71.40;17.60;98948.00;;;;5032666;28;20330;-74
2024/01/02 10:50:45;;;;;;;4.55;1.70;;;16.10;71.30;17.60;98941.00;;;;5032758;28;20644;-74
2024/01/02 10:53:33;;;;;;;8.07;2.15;;;16.10;71.30;17.60;98936.00;;;;5032777;28;20211;-75
2024/01/02 10:56:13;;;;;;;2.83;1.27;;;16.20;71.30;17.60;98941.00;;;;5032680;28;20207;-75
2024/01/02 10:58:57;;;;;;;5.25;1.60;;;16.20;71.30;17.70;98938.00;;;;5032706;28;20196;-76
2024/01/02 11:01:27;;;;;;;3.30;1.58;;;16.20;71.30;17.70;98931.00;;;;5023474;28;20294;-75